sensor_id;sensor_type;location;lat;lon;timestamp;P1;durP1;ratioP1;P2;durP2;ratioP2
22665;SDS011;11499;49.486;11.104;2022-12-20T00:00:28;17.23;;;13.87;;
22665;SDS011;11499;49.486;11.104;2022-12-20T00:02:53;17.33;;;13.40;;
22665;SDS011;11499;49.486;11.104;2022-12-20T00:05:19;18.07;;;13.83;;
22665;SDS011;11499;49.486;11.104;2022-12-20T00:07:44;17.77;;;13.90;;
22665;SDS011;11499;49.486;11.104;2022-12-20T00:10:10;18.20;;;13.80;;
22665;SDS011;11499;49.486;11.104;2022-12-20T00:12:36;17.53;;;13.10;;
22665;SDS011;11499;49.486;11.104;2022-12-20T00:15:01;16.93;;;13.27;;
22665;SDS011;11499;49.486;11.104;2022-12-20T00:17:27;17.47;;;13.33;;
22665;SDS011;11499;49.486;11.104;2022-12-20T00:22:22;17.50;;;13.53;;
22665;SDS011;11499;49.486;11.104;2022-12-20T00:24:50;17.80;;;13.70;;
22665;SDS011;11499;49.486;11.104;2022-12-20T00:27:16;18.90;;;14.30;;
22665;SDS011;11499;49.486;11.104;2022-12-20T00:29:41;16.93;;;13.60;;
22665;SDS011;11499;49.486;11.104;2022-12-20T00:32:07;16.60;;;13.83;;
22665;SDS011;11499;49.486;11.104;2022-12-20T00:34:32;18.67;;;13.50;;
22665;SDS011;11499;49.486;11.104;2022-12-20T00:36:58;19.70;;;14.00;;
22665;SDS011;11499;49.486;11.104;2022-12-20T00:39:23;18.03;;;13.73;;
22665;SDS011;11499;49.486;11.104;2022-12-20T00:41:49;16.87;;;13.40;;
22665;SDS011;11499;49.486;11.104;2022-12-20T00:44:14;19.07;;;13.50;;
22665;SDS011;11499;49.486;11.104;2022-12-20T00:46:40;16.60;;;13.03;;
22665;SDS011;11499;49.486;11.104;2022-12-20T00:50:30;18.90;;;14.40;;
22665;SDS011;11499;49.486;11.104;2022-12-20T00:52:55;16.00;;;13.70;;
22665;SDS011;11499;49.486;11.104;2022-12-20T00:55:21;17.60;;;13.57;;
22665;SDS011;11499;49.486;11.104;2022-12-20T00:57:46;16.50;;;13.03;;
22665;SDS011;11499;49.486;11.104;2022-12-20T01:00:12;18.43;;;13.43;;
22665;SDS011;11499;49.486;11.104;2022-12-20T01:02:37;17.07;;;13.33;;
22665;SDS011;11499;49.486;11.104;2022-12-20T01:05:03;16.50;;;13.27;;
22665;SDS011;11499;49.486;11.104;2022-12-20T01:07:30;16.87;;;13.70;;
22665;SDS011;11499;49.486;11.104;2022-12-20T01:09:56;19.17;;;14.20;;
22665;SDS011;11499;49.486;11.104;2022-12-20T01:12:22;19.00;;;13.87;;
22665;SDS011;11499;49.486;11.104;2022-12-20T01:17:50;17.40;;;13.60;;
22665;SDS011;11499;49.486;11.104;2022-12-20T01:20:15;18.17;;;14.27;;
22665;SDS011;11499;49.486;11.104;2022-12-20T01:22:41;18.27;;;13.80;;
22665;SDS011;11499;49.486;11.104;2022-12-20T01:25:07;15.80;;;12.77;;
22665;SDS011;11499;49.486;11.104;2022-12-20T01:27:32;19.20;;;13.63;;
22665;SDS011;11499;49.486;11.104;2022-12-20T01:29:58;17.67;;;13.90;;
22665;SDS011;11499;49.486;11.104;2022-12-20T01:32:23;16.60;;;12.87;;
22665;SDS011;11499;49.486;11.104;2022-12-20T01:34:49;16.77;;;13.37;;
22665;SDS011;11499;49.486;11.104;2022-12-20T01:37:14;18.63;;;13.70;;
22665;SDS011;11499;49.486;11.104;2022-12-20T01:39:41;18.83;;;13.43;;
22665;SDS011;11499;49.486;11.104;2022-12-20T01:48:06;17.17;;;13.87;;
22665;SDS011;11499;49.486;11.104;2022-12-20T01:50:32;17.27;;;12.80;;
22665;SDS011;11499;49.486;11.104;2022-12-20T01:52:58;17.27;;;13.40;;
22665;SDS011;11499;49.486;11.104;2022-12-20T01:55:26;20.53;;;13.73;;
22665;SDS011;11499;49.486;11.104;2022-12-20T01:57:57;17.50;;;13.60;;
22665;SDS011;11499;49.486;11.104;2022-12-20T02:00:28;18.80;;;14.10;;
22665;SDS011;11499;49.486;11.104;2022-12-20T02:02:54;18.03;;;14.17;;
22665;SDS011;11499;49.486;11.104;2022-12-20T02:05:24;17.57;;;13.77;;
22665;SDS011;11499;49.486;11.104;2022-12-20T02:07:51;18.33;;;14.00;;
22665;SDS011;11499;49.486;11.104;2022-12-20T02:13:02;18.70;;;14.10;;
22665;SDS011;11499;49.486;11.104;2022-12-20T02:15:54;19.03;;;14.47;;
22665;SDS011;11499;49.486;11.104;2022-12-20T02:18:22;19.23;;;14.10;;
22665;SDS011;11499;49.486;11.104;2022-12-20T02:21:05;18.07;;;13.80;;
22665;SDS011;11499;49.486;11.104;2022-12-20T02:23:59;15.90;;;12.97;;
22665;SDS011;11499;49.486;11.104;2022-12-20T02:26:52;18.07;;;13.90;;
22665;SDS011;11499;49.486;11.104;2022-12-20T02:29:32;18.40;;;13.93;;
22665;SDS011;11499;49.486;11.104;2022-12-20T02:32:00;17.10;;;12.97;;
22665;SDS011;11499;49.486;11.104;2022-12-20T02:34:36;18.50;;;14.50;;
22665;SDS011;11499;49.486;11.104;2022-12-20T02:40:07;19.40;;;14.50;;
22665;SDS011;11499;49.486;11.104;2022-12-20T02:42:33;18.83;;;13.83;;
22665;SDS011;11499;49.486;11.104;2022-12-20T02:45:01;16.13;;;13.47;;
22665;SDS011;11499;49.486;11.104;2022-12-20T02:50:10;17.00;;;13.40;;
22665;SDS011;11499;49.486;11.104;2022-12-20T02:52:36;15.93;;;13.13;;
22665;SDS011;11499;49.486;11.104;2022-12-20T02:55:03;17.87;;;13.90;;
22665;SDS011;11499;49.486;11.104;2022-12-20T02:57:48;17.43;;;13.90;;
22665;SDS011;11499;49.486;11.104;2022-12-20T03:00:20;17.43;;;13.80;;
22665;SDS011;11499;49.486;11.104;2022-12-20T03:02:47;17.57;;;13.73;;
22665;SDS011;11499;49.486;11.104;2022-12-20T03:07:37;17.17;;;13.17;;
22665;SDS011;11499;49.486;11.104;2022-12-20T03:10:03;16.13;;;13.07;;
22665;SDS011;11499;49.486;11.104;2022-12-20T03:12:28;16.00;;;12.93;;
22665;SDS011;11499;49.486;11.104;2022-12-20T03:14:54;16.57;;;13.80;;
22665;SDS011;11499;49.486;11.104;2022-12-20T03:17:19;16.97;;;13.77;;
22665;SDS011;11499;49.486;11.104;2022-12-20T03:19:45;15.70;;;13.30;;
22665;SDS011;11499;49.486;11.104;2022-12-20T03:22:10;17.23;;;13.47;;
22665;SDS011;11499;49.486;11.104;2022-12-20T03:24:36;16.20;;;13.20;;
22665;SDS011;11499;49.486;11.104;2022-12-20T03:27:02;15.77;;;13.00;;
22665;SDS011;11499;49.486;11.104;2022-12-20T03:29:27;17.77;;;13.97;;
22665;SDS011;11499;49.486;11.104;2022-12-20T03:34:42;17.43;;;13.87;;
22665;SDS011;11499;49.486;11.104;2022-12-20T03:37:08;16.47;;;13.87;;
22665;SDS011;11499;49.486;11.104;2022-12-20T03:39:34;17.67;;;13.93;;
22665;SDS011;11499;49.486;11.104;2022-12-20T03:41:59;16.87;;;13.77;;
22665;SDS011;11499;49.486;11.104;2022-12-20T03:44:24;16.50;;;13.10;;
22665;SDS011;11499;49.486;11.104;2022-12-20T03:46:50;17.10;;;14.07;;
22665;SDS011;11499;49.486;11.104;2022-12-20T03:49:16;17.50;;;14.17;;
22665;SDS011;11499;49.486;11.104;2022-12-20T03:51:41;17.10;;;13.40;;
22665;SDS011;11499;49.486;11.104;2022-12-20T03:54:07;17.43;;;13.37;;
22665;SDS011;11499;49.486;11.104;2022-12-20T03:56:32;17.97;;;13.37;;
22665;SDS011;11499;49.486;11.104;2022-12-20T04:02:00;17.23;;;13.70;;
22665;SDS011;11499;49.486;11.104;2022-12-20T04:04:26;17.80;;;13.83;;
22665;SDS011;11499;49.486;11.104;2022-12-20T04:06:51;16.90;;;13.33;;
22665;SDS011;11499;49.486;11.104;2022-12-20T04:09:17;18.53;;;14.10;;
22665;SDS011;11499;49.486;11.104;2022-12-20T04:11:42;18.63;;;13.90;;
22665;SDS011;11499;49.486;11.104;2022-12-20T04:14:07;18.50;;;13.53;;
22665;SDS011;11499;49.486;11.104;2022-12-20T04:16:33;17.20;;;14.13;;
22665;SDS011;11499;49.486;11.104;2022-12-20T04:18:59;17.17;;;13.70;;
22665;SDS011;11499;49.486;11.104;2022-12-20T04:21:28;17.00;;;13.63;;
22665;SDS011;11499;49.486;11.104;2022-12-20T04:23:56;17.27;;;13.60;;
22665;SDS011;11499;49.486;11.104;2022-12-20T04:29:04;17.33;;;13.60;;
22665;SDS011;11499;49.486;11.104;2022-12-20T04:31:29;18.83;;;14.53;;
22665;SDS011;11499;49.486;11.104;2022-12-20T04:33:55;17.37;;;13.00;;
22665;SDS011;11499;49.486;11.104;2022-12-20T04:36:21;18.57;;;14.97;;
22665;SDS011;11499;49.486;11.104;2022-12-20T04:38:46;17.73;;;13.90;;
22665;SDS011;11499;49.486;11.104;2022-12-20T04:41:12;19.60;;;14.40;;
22665;SDS011;11499;49.486;11.104;2022-12-20T04:43:49;16.83;;;13.73;;
22665;SDS011;11499;49.486;11.104;2022-12-20T04:46:17;17.83;;;13.77;;
22665;SDS011;11499;49.486;11.104;2022-12-20T04:48:45;16.30;;;13.03;;
22665;SDS011;11499;49.486;11.104;2022-12-20T04:51:10;18.53;;;14.37;;
22665;SDS011;11499;49.486;11.104;2022-12-20T04:56:27;18.80;;;13.60;;
22665;SDS011;11499;49.486;11.104;2022-12-20T04:58:53;16.30;;;12.63;;
22665;SDS011;11499;49.486;11.104;2022-12-20T05:01:20;18.00;;;13.90;;
22665;SDS011;11499;49.486;11.104;2022-12-20T05:03:46;16.63;;;13.17;;
22665;SDS011;11499;49.486;11.104;2022-12-20T05:06:13;17.83;;;14.03;;
22665;SDS011;11499;49.486;11.104;2022-12-20T05:08:39;17.57;;;13.60;;
22665;SDS011;11499;49.486;11.104;2022-12-20T05:11:04;16.63;;;13.37;;
22665;SDS011;11499;49.486;11.104;2022-12-20T05:13:30;17.87;;;13.87;;
22665;SDS011;11499;49.486;11.104;2022-12-20T05:15:56;16.90;;;13.07;;
22665;SDS011;11499;49.486;11.104;2022-12-20T05:18:22;20.07;;;14.17;;
22665;SDS011;11499;49.486;11.104;2022-12-20T05:23:31;16.57;;;13.93;;
22665;SDS011;11499;49.486;11.104;2022-12-20T05:26:15;18.33;;;14.67;;
22665;SDS011;11499;49.486;11.104;2022-12-20T05:28:43;17.97;;;13.30;;
22665;SDS011;11499;49.486;11.104;2022-12-20T05:31:09;17.43;;;13.27;;
22665;SDS011;11499;49.486;11.104;2022-12-20T05:33:35;18.37;;;14.07;;
22665;SDS011;11499;49.486;11.104;2022-12-20T05:36:00;17.93;;;13.83;;
22665;SDS011;11499;49.486;11.104;2022-12-20T05:38:26;15.60;;;12.93;;
22665;SDS011;11499;49.486;11.104;2022-12-20T05:40:51;16.70;;;12.97;;
22665;SDS011;11499;49.486;11.104;2022-12-20T05:43:17;17.37;;;13.33;;
22665;SDS011;11499;49.486;11.104;2022-12-20T05:45:44;16.43;;;13.37;;
22665;SDS011;11499;49.486;11.104;2022-12-20T05:49:53;17.90;;;13.37;;
22665;SDS011;11499;49.486;11.104;2022-12-20T05:52:19;17.40;;;13.63;;
22665;SDS011;11499;49.486;11.104;2022-12-20T05:54:45;15.77;;;13.07;;
22665;SDS011;11499;49.486;11.104;2022-12-20T05:57:13;18.03;;;13.63;;
22665;SDS011;11499;49.486;11.104;2022-12-20T05:59:39;17.83;;;13.60;;
22665;SDS011;11499;49.486;11.104;2022-12-20T06:02:05;17.63;;;13.57;;
22665;SDS011;11499;49.486;11.104;2022-12-20T06:04:31;20.40;;;15.47;;
22665;SDS011;11499;49.486;11.104;2022-12-20T06:06:57;18.30;;;14.63;;
22665;SDS011;11499;49.486;11.104;2022-12-20T06:09:25;17.00;;;13.33;;
22665;SDS011;11499;49.486;11.104;2022-12-20T06:11:51;16.80;;;13.17;;
22665;SDS011;11499;49.486;11.104;2022-12-20T06:16:34;17.17;;;13.27;;
22665;SDS011;11499;49.486;11.104;2022-12-20T06:19:00;18.03;;;14.30;;
22665;SDS011;11499;49.486;11.104;2022-12-20T06:21:26;17.27;;;13.87;;
22665;SDS011;11499;49.486;11.104;2022-12-20T06:23:52;15.53;;;13.73;;
22665;SDS011;11499;49.486;11.104;2022-12-20T06:26:18;18.27;;;14.03;;
22665;SDS011;11499;49.486;11.104;2022-12-20T06:28:43;18.10;;;14.33;;
22665;SDS011;11499;49.486;11.104;2022-12-20T06:31:10;19.37;;;15.10;;
22665;SDS011;11499;49.486;11.104;2022-12-20T06:33:35;17.23;;;13.67;;
22665;SDS011;11499;49.486;11.104;2022-12-20T06:36:02;18.33;;;14.67;;
22665;SDS011;11499;49.486;11.104;2022-12-20T06:41:11;18.40;;;14.60;;
22665;SDS011;11499;49.486;11.104;2022-12-20T06:43:37;18.93;;;14.90;;
22665;SDS011;11499;49.486;11.104;2022-12-20T06:46:02;17.77;;;14.13;;
22665;SDS011;11499;49.486;11.104;2022-12-20T06:48:28;17.97;;;13.90;;
22665;SDS011;11499;49.486;11.104;2022-12-20T06:50:54;20.23;;;15.23;;
22665;SDS011;11499;49.486;11.104;2022-12-20T06:53:19;18.87;;;15.10;;
22665;SDS011;11499;49.486;11.104;2022-12-20T06:55:48;20.00;;;15.97;;
22665;SDS011;11499;49.486;11.104;2022-12-20T06:58:15;22.73;;;16.77;;
22665;SDS011;11499;49.486;11.104;2022-12-20T07:00:44;20.00;;;16.17;;
22665;SDS011;11499;49.486;11.104;2022-12-20T07:03:09;21.63;;;16.17;;
22665;SDS011;11499;49.486;11.104;2022-12-20T07:08:27;20.07;;;16.40;;
22665;SDS011;11499;49.486;11.104;2022-12-20T07:10:53;22.67;;;16.97;;
22665;SDS011;11499;49.486;11.104;2022-12-20T07:13:19;22.67;;;18.03;;
22665;SDS011;11499;49.486;11.104;2022-12-20T07:15:44;25.03;;;18.73;;
22665;SDS011;11499;49.486;11.104;2022-12-20T07:18:10;25.70;;;18.77;;
22665;SDS011;11499;49.486;11.104;2022-12-20T07:20:36;24.67;;;17.77;;
22665;SDS011;11499;49.486;11.104;2022-12-20T07:23:01;21.10;;;15.77;;
22665;SDS011;11499;49.486;11.104;2022-12-20T07:25:27;16.83;;;13.43;;
22665;SDS011;11499;49.486;11.104;2022-12-20T07:27:53;17.53;;;14.37;;
22665;SDS011;11499;49.486;11.104;2022-12-20T07:30:19;20.67;;;15.60;;
22665;SDS011;11499;49.486;11.104;2022-12-20T07:35:18;20.23;;;15.10;;
22665;SDS011;11499;49.486;11.104;2022-12-20T07:37:43;26.53;;;17.80;;
22665;SDS011;11499;49.486;11.104;2022-12-20T07:40:10;24.53;;;17.07;;
22665;SDS011;11499;49.486;11.104;2022-12-20T07:42:36;20.43;;;15.73;;
22665;SDS011;11499;49.486;11.104;2022-12-20T07:45:01;19.47;;;15.53;;
22665;SDS011;11499;49.486;11.104;2022-12-20T07:47:27;17.87;;;13.57;;
22665;SDS011;11499;49.486;11.104;2022-12-20T07:49:53;16.43;;;13.87;;
22665;SDS011;11499;49.486;11.104;2022-12-20T07:52:20;17.77;;;13.57;;
22665;SDS011;11499;49.486;11.104;2022-12-20T07:54:50;17.17;;;13.60;;
22665;SDS011;11499;49.486;11.104;2022-12-20T07:57:22;16.40;;;13.97;;
22665;SDS011;11499;49.486;11.104;2022-12-20T08:02:41;22.30;;;16.17;;
22665;SDS011;11499;49.486;11.104;2022-12-20T08:05:12;21.97;;;16.13;;
22665;SDS011;11499;49.486;11.104;2022-12-20T08:07:39;18.27;;;15.40;;
22665;SDS011;11499;49.486;11.104;2022-12-20T08:10:07;16.77;;;14.10;;
22665;SDS011;11499;49.486;11.104;2022-12-20T08:12:35;17.33;;;14.30;;
22665;SDS011;11499;49.486;11.104;2022-12-20T08:15:01;18.73;;;14.57;;
22665;SDS011;11499;49.486;11.104;2022-12-20T08:17:27;19.07;;;14.63;;
22665;SDS011;11499;49.486;11.104;2022-12-20T08:19:52;18.50;;;14.33;;
22665;SDS011;11499;49.486;11.104;2022-12-20T08:22:18;18.33;;;14.57;;
22665;SDS011;11499;49.486;11.104;2022-12-20T08:24:43;17.37;;;13.67;;
22665;SDS011;11499;49.486;11.104;2022-12-20T08:29:48;16.70;;;13.90;;
22665;SDS011;11499;49.486;11.104;2022-12-20T08:32:14;16.80;;;13.93;;
22665;SDS011;11499;49.486;11.104;2022-12-20T08:34:40;17.50;;;14.17;;
22665;SDS011;11499;49.486;11.104;2022-12-20T08:37:05;15.60;;;13.73;;
22665;SDS011;11499;49.486;11.104;2022-12-20T08:39:31;16.70;;;13.20;;
22665;SDS011;11499;49.486;11.104;2022-12-20T08:41:57;15.30;;;13.10;;
22665;SDS011;11499;49.486;11.104;2022-12-20T08:44:22;16.87;;;15.03;;
22665;SDS011;11499;49.486;11.104;2022-12-20T08:46:48;16.90;;;14.20;;
22665;SDS011;11499;49.486;11.104;2022-12-20T08:49:13;17.20;;;14.27;;
22665;SDS011;11499;49.486;11.104;2022-12-20T08:51:39;16.83;;;14.27;;
22665;SDS011;11499;49.486;11.104;2022-12-20T08:56:46;19.47;;;15.73;;
22665;SDS011;11499;49.486;11.104;2022-12-20T08:59:12;18.70;;;14.80;;
22665;SDS011;11499;49.486;11.104;2022-12-20T09:01:37;18.23;;;13.77;;
22665;SDS011;11499;49.486;11.104;2022-12-20T09:04:03;15.50;;;12.53;;
22665;SDS011;11499;49.486;11.104;2022-12-20T09:06:29;14.63;;;13.03;;
22665;SDS011;11499;49.486;11.104;2022-12-20T09:08:54;17.13;;;13.40;;
22665;SDS011;11499;49.486;11.104;2022-12-20T09:11:21;15.57;;;13.43;;
22665;SDS011;11499;49.486;11.104;2022-12-20T09:13:49;18.03;;;13.93;;
22665;SDS011;11499;49.486;11.104;2022-12-20T09:16:17;16.63;;;13.67;;
22665;SDS011;11499;49.486;11.104;2022-12-20T09:18:47;16.03;;;13.30;;
22665;SDS011;11499;49.486;11.104;2022-12-20T09:23:53;14.27;;;12.50;;
22665;SDS011;11499;49.486;11.104;2022-12-20T09:26:20;17.70;;;13.27;;
22665;SDS011;11499;49.486;11.104;2022-12-20T09:28:47;15.57;;;13.43;;
22665;SDS011;11499;49.486;11.104;2022-12-20T09:31:14;17.70;;;14.23;;
22665;SDS011;11499;49.486;11.104;2022-12-20T09:33:42;15.30;;;12.53;;
22665;SDS011;11499;49.486;11.104;2022-12-20T09:36:12;14.90;;;13.13;;
22665;SDS011;11499;49.486;11.104;2022-12-20T09:38:39;17.40;;;12.67;;
22665;SDS011;11499;49.486;11.104;2022-12-20T09:41:05;16.23;;;12.90;;
22665;SDS011;11499;49.486;11.104;2022-12-20T09:43:33;14.13;;;11.77;;
22665;SDS011;11499;49.486;11.104;2022-12-20T09:46:01;13.73;;;12.30;;
22665;SDS011;11499;49.486;11.104;2022-12-20T09:48:29;16.53;;;12.70;;
22665;SDS011;11499;49.486;11.104;2022-12-20T09:53:52;15.43;;;11.87;;
22665;SDS011;11499;49.486;11.104;2022-12-20T09:59:13;17.43;;;13.40;;
22665;SDS011;11499;49.486;11.104;2022-12-20T10:01:42;17.50;;;13.20;;
22665;SDS011;11499;49.486;11.104;2022-12-20T10:04:20;17.13;;;13.67;;
22665;SDS011;11499;49.486;11.104;2022-12-20T10:07:01;19.73;;;15.00;;
22665;SDS011;11499;49.486;11.104;2022-12-20T10:12:33;19.27;;;16.03;;
22665;SDS011;11499;49.486;11.104;2022-12-20T10:15:20;16.33;;;13.70;;
22665;SDS011;11499;49.486;11.104;2022-12-20T10:21:26;15.23;;;12.47;;
22665;SDS011;11499;49.486;11.104;2022-12-20T10:23:57;15.37;;;11.80;;
22665;SDS011;11499;49.486;11.104;2022-12-20T10:26:26;15.87;;;11.57;;
22665;SDS011;11499;49.486;11.104;2022-12-20T10:28:52;13.63;;;11.27;;
22665;SDS011;11499;49.486;11.104;2022-12-20T10:31:18;17.73;;;13.33;;
22665;SDS011;11499;49.486;11.104;2022-12-20T10:33:44;15.93;;;12.53;;
22665;SDS011;11499;49.486;11.104;2022-12-20T10:36:43;14.33;;;11.90;;
22665;SDS011;11499;49.486;11.104;2022-12-20T10:39:03;13.33;;;11.53;;
22665;SDS011;11499;49.486;11.104;2022-12-20T10:41:45;13.50;;;11.73;;
22665;SDS011;11499;49.486;11.104;2022-12-20T10:47:20;13.40;;;11.20;;
22665;SDS011;11499;49.486;11.104;2022-12-20T10:50:06;13.37;;;11.50;;
22665;SDS011;11499;49.486;11.104;2022-12-20T10:52:40;15.40;;;11.00;;
22665;SDS011;11499;49.486;11.104;2022-12-20T10:55:30;13.63;;;11.33;;
22665;SDS011;11499;49.486;11.104;2022-12-20T10:58:13;14.07;;;11.90;;
22665;SDS011;11499;49.486;11.104;2022-12-20T11:00:40;14.27;;;11.10;;
22665;SDS011;11499;49.486;11.104;2022-12-20T11:03:15;15.17;;;11.03;;
22665;SDS011;11499;49.486;11.104;2022-12-20T11:05:55;13.00;;;11.17;;
22665;SDS011;11499;49.486;11.104;2022-12-20T11:08:24;14.30;;;11.17;;
22665;SDS011;11499;49.486;11.104;2022-12-20T11:14:36;14.33;;;10.97;;
22665;SDS011;11499;49.486;11.104;2022-12-20T11:17:03;12.07;;;10.37;;
22665;SDS011;11499;49.486;11.104;2022-12-20T11:22:40;15.57;;;11.90;;
22665;SDS011;11499;49.486;11.104;2022-12-20T11:25:16;11.80;;;10.60;;
22665;SDS011;11499;49.486;11.104;2022-12-20T11:33:42;13.20;;;11.03;;
22665;SDS011;11499;49.486;11.104;2022-12-20T11:39:38;13.97;;;10.10;;
22665;SDS011;11499;49.486;11.104;2022-12-20T11:49:38;11.40;;;9.93;;
22665;SDS011;11499;49.486;11.104;2022-12-20T11:55:17;11.37;;;9.47;;
22665;SDS011;11499;49.486;11.104;2022-12-20T11:58:04;12.27;;;10.27;;
22665;SDS011;11499;49.486;11.104;2022-12-20T12:00:31;12.40;;;10.40;;
22665;SDS011;11499;49.486;11.104;2022-12-20T12:03:13;11.37;;;10.17;;
22665;SDS011;11499;49.486;11.104;2022-12-20T12:05:46;11.63;;;9.90;;
22665;SDS011;11499;49.486;11.104;2022-12-20T12:10:59;11.60;;;9.30;;
22665;SDS011;11499;49.486;11.104;2022-12-20T12:13:30;12.47;;;9.57;;
22665;SDS011;11499;49.486;11.104;2022-12-20T12:18:32;15.10;;;11.70;;
22665;SDS011;11499;49.486;11.104;2022-12-20T12:21:03;11.00;;;9.57;;
22665;SDS011;11499;49.486;11.104;2022-12-20T12:23:35;11.93;;;9.93;;
22665;SDS011;11499;49.486;11.104;2022-12-20T12:26:30;12.33;;;10.10;;
22665;SDS011;11499;49.486;11.104;2022-12-20T12:28:59;13.20;;;9.60;;
22665;SDS011;11499;49.486;11.104;2022-12-20T12:39:49;11.83;;;10.57;;
22665;SDS011;11499;49.486;11.104;2022-12-20T12:45:49;11.97;;;9.30;;
22665;SDS011;11499;49.486;11.104;2022-12-20T12:51:16;11.73;;;10.13;;
22665;SDS011;11499;49.486;11.104;2022-12-20T12:53:48;12.03;;;10.00;;
22665;SDS011;11499;49.486;11.104;2022-12-20T13:11:42;12.00;;;9.63;;
22665;SDS011;11499;49.486;11.104;2022-12-20T13:16:46;11.43;;;9.33;;
22665;SDS011;11499;49.486;11.104;2022-12-20T13:19:15;12.07;;;9.97;;
22665;SDS011;11499;49.486;11.104;2022-12-20T13:21:43;10.73;;;8.70;;
22665;SDS011;11499;49.486;11.104;2022-12-20T13:27:21;10.27;;;9.17;;
22665;SDS011;11499;49.486;11.104;2022-12-20T13:30:29;11.43;;;9.10;;
22665;SDS011;11499;49.486;11.104;2022-12-20T13:37:57;13.77;;;10.07;;
22665;SDS011;11499;49.486;11.104;2022-12-20T13:40:37;10.33;;;9.27;;
22665;SDS011;11499;49.486;11.104;2022-12-20T13:43:15;11.93;;;10.50;;
22665;SDS011;11499;49.486;11.104;2022-12-20T13:45:45;10.83;;;9.40;;
22665;SDS011;11499;49.486;11.104;2022-12-20T13:48:14;10.90;;;8.23;;
22665;SDS011;11499;49.486;11.104;2022-12-20T13:50:49;11.40;;;9.10;;
22665;SDS011;11499;49.486;11.104;2022-12-20T13:53:17;10.90;;;9.23;;
22665;SDS011;11499;49.486;11.104;2022-12-20T13:55:46;12.73;;;8.90;;
22665;SDS011;11499;49.486;11.104;2022-12-20T13:58:20;9.80;;;8.17;;
22665;SDS011;11499;49.486;11.104;2022-12-20T14:02:17;9.70;;;8.30;;
22665;SDS011;11499;49.486;11.104;2022-12-20T14:05:36;11.60;;;9.90;;
22665;SDS011;11499;49.486;11.104;2022-12-20T14:07:58;9.70;;;8.70;;
22665;SDS011;11499;49.486;11.104;2022-12-20T14:10:32;12.23;;;9.30;;
22665;SDS011;11499;49.486;11.104;2022-12-20T14:12:59;9.87;;;8.50;;
22665;SDS011;11499;49.486;11.104;2022-12-20T14:18:03;12.47;;;9.87;;
22665;SDS011;11499;49.486;11.104;2022-12-20T14:20:32;12.70;;;8.43;;
22665;SDS011;11499;49.486;11.104;2022-12-20T14:23:01;11.80;;;9.73;;
22665;SDS011;11499;49.486;11.104;2022-12-20T14:28:21;12.50;;;9.80;;
22665;SDS011;11499;49.486;11.104;2022-12-20T14:31:33;12.50;;;9.27;;
22665;SDS011;11499;49.486;11.104;2022-12-20T14:34:00;11.23;;;9.47;;
22665;SDS011;11499;49.486;11.104;2022-12-20T14:36:36;10.70;;;9.17;;
22665;SDS011;11499;49.486;11.104;2022-12-20T14:44:34;11.70;;;10.03;;
22665;SDS011;11499;49.486;11.104;2022-12-20T14:47:01;10.93;;;9.17;;
22665;SDS011;11499;49.486;11.104;2022-12-20T14:49:37;11.40;;;9.27;;
22665;SDS011;11499;49.486;11.104;2022-12-20T14:57:21;11.43;;;9.63;;
22665;SDS011;11499;49.486;11.104;2022-12-20T15:00:00;12.63;;;9.60;;
22665;SDS011;11499;49.486;11.104;2022-12-20T15:02:36;12.87;;;9.73;;
22665;SDS011;11499;49.486;11.104;2022-12-20T15:13:18;11.83;;;8.97;;
22665;SDS011;11499;49.486;11.104;2022-12-20T15:15:45;11.63;;;9.57;;
22665;SDS011;11499;49.486;11.104;2022-12-20T15:21:02;12.90;;;9.90;;
22665;SDS011;11499;49.486;11.104;2022-12-20T15:23:29;10.43;;;9.30;;
22665;SDS011;11499;49.486;11.104;2022-12-20T15:25:55;13.30;;;10.33;;
22665;SDS011;11499;49.486;11.104;2022-12-20T15:28:22;11.63;;;9.67;;
22665;SDS011;11499;49.486;11.104;2022-12-20T15:30:49;12.67;;;10.20;;
22665;SDS011;11499;49.486;11.104;2022-12-20T15:33:17;12.83;;;10.43;;
22665;SDS011;11499;49.486;11.104;2022-12-20T15:35:45;11.30;;;9.93;;
22665;SDS011;11499;49.486;11.104;2022-12-20T15:38:15;12.03;;;10.43;;
22665;SDS011;11499;49.486;11.104;2022-12-20T15:40:43;12.87;;;10.27;;
22665;SDS011;11499;49.486;11.104;2022-12-20T15:43:14;12.97;;;10.20;;
22665;SDS011;11499;49.486;11.104;2022-12-20T15:47:20;12.73;;;9.90;;
22665;SDS011;11499;49.486;11.104;2022-12-20T15:49:46;12.70;;;9.73;;
22665;SDS011;11499;49.486;11.104;2022-12-20T15:52:15;12.50;;;10.37;;
22665;SDS011;11499;49.486;11.104;2022-12-20T15:54:44;12.07;;;9.63;;
22665;SDS011;11499;49.486;11.104;2022-12-20T15:57:10;13.97;;;9.70;;
22665;SDS011;11499;49.486;11.104;2022-12-20T15:59:38;12.57;;;10.37;;
22665;SDS011;11499;49.486;11.104;2022-12-20T16:02:14;15.23;;;11.03;;
22665;SDS011;11499;49.486;11.104;2022-12-20T16:04:45;13.30;;;10.63;;
22665;SDS011;11499;49.486;11.104;2022-12-20T16:07:10;16.00;;;11.27;;
22665;SDS011;11499;49.486;11.104;2022-12-20T16:09:36;14.17;;;12.20;;
22665;SDS011;11499;49.486;11.104;2022-12-20T16:14:51;14.17;;;10.93;;
22665;SDS011;11499;49.486;11.104;2022-12-20T16:17:20;15.52;;;13.77;;
22665;SDS011;11499;49.486;11.104;2022-12-20T16:19:46;13.73;;;11.70;;
22665;SDS011;11499;49.486;11.104;2022-12-20T16:22:15;14.50;;;11.90;;
22665;SDS011;11499;49.486;11.104;2022-12-20T16:24:42;12.93;;;10.93;;
22665;SDS011;11499;49.486;11.104;2022-12-20T16:27:08;13.83;;;10.90;;
22665;SDS011;11499;49.486;11.104;2022-12-20T16:29:34;14.97;;;11.67;;
22665;SDS011;11499;49.486;11.104;2022-12-20T16:31:59;13.07;;;10.90;;
22665;SDS011;11499;49.486;11.104;2022-12-20T16:34:25;14.13;;;11.27;;
22665;SDS011;11499;49.486;11.104;2022-12-20T16:36:50;15.50;;;11.80;;
22665;SDS011;11499;49.486;11.104;2022-12-20T16:41:49;12.80;;;10.00;;
22665;SDS011;11499;49.486;11.104;2022-12-20T16:44:15;13.57;;;10.87;;
22665;SDS011;11499;49.486;11.104;2022-12-20T16:46:41;14.70;;;10.23;;
22665;SDS011;11499;49.486;11.104;2022-12-20T16:49:07;13.97;;;11.20;;
22665;SDS011;11499;49.486;11.104;2022-12-20T16:51:39;12.83;;;10.30;;
22665;SDS011;11499;49.486;11.104;2022-12-20T16:54:15;14.77;;;11.30;;
22665;SDS011;11499;49.486;11.104;2022-12-20T16:56:43;13.13;;;10.83;;
22665;SDS011;11499;49.486;11.104;2022-12-20T16:59:09;14.20;;;11.33;;
22665;SDS011;11499;49.486;11.104;2022-12-20T17:01:36;15.60;;;12.20;;
22665;SDS011;11499;49.486;11.104;2022-12-20T17:06:43;16.30;;;11.73;;
22665;SDS011;11499;49.486;11.104;2022-12-20T17:09:09;13.47;;;10.87;;
22665;SDS011;11499;49.486;11.104;2022-12-20T17:11:35;13.90;;;11.00;;
22665;SDS011;11499;49.486;11.104;2022-12-20T17:14:00;15.10;;;11.67;;
22665;SDS011;11499;49.486;11.104;2022-12-20T17:16:26;14.70;;;11.23;;
22665;SDS011;11499;49.486;11.104;2022-12-20T17:18:53;16.37;;;12.13;;
22665;SDS011;11499;49.486;11.104;2022-12-20T17:23:51;16.63;;;13.20;;
22665;SDS011;11499;49.486;11.104;2022-12-20T17:26:22;17.30;;;13.60;;
22665;SDS011;11499;49.486;11.104;2022-12-20T17:28:50;15.67;;;12.83;;